sensor_id;sensor_type;location;lat;lon;timestamp;temperature;humidity
21184;DHT22;18176;49.502;11.754;2022-12-16T00:02:30;-2.30;99.90
21184;DHT22;18176;49.502;11.754;2022-12-16T00:06:33;-2.30;99.90
21184;DHT22;18176;49.502;11.754;2022-12-16T00:10:34;-2.20;99.90
21184;DHT22;18176;49.502;11.754;2022-12-16T00:14:50;-2.30;99.90
21184;DHT22;18176;49.502;11.754;2022-12-16T00:18:51;-2.30;99.90
21184;DHT22;18176;49.502;11.754;2022-12-16T00:22:53;-2.30;99.90
21184;DHT22;18176;49.502;11.754;2022-12-16T00:26:53;-2.40;99.90
21184;DHT22;18176;49.502;11.754;2022-12-16T00:30:55;-2.30;99.90
21184;DHT22;18176;49.502;11.754;2022-12-16T00:34:55;-2.40;99.90
21184;DHT22;18176;49.502;11.754;2022-12-16T00:38:58;-2.30;99.90
21184;DHT22;18176;49.502;11.754;2022-12-16T00:42:58;-2.30;99.90
21184;DHT22;18176;49.502;11.754;2022-12-16T00:46:58;-2.30;99.90
21184;DHT22;18176;49.502;11.754;2022-12-16T00:50:58;-2.30;99.90
21184;DHT22;18176;49.502;11.754;2022-12-16T00:55:01;-2.30;99.90
21184;DHT22;18176;49.502;11.754;2022-12-16T00:59:01;-2.40;99.90
21184;DHT22;18176;49.502;11.754;2022-12-16T01:03:01;-2.30;99.90
21184;DHT22;18176;49.502;11.754;2022-12-16T01:07:02;-2.30;99.90
21184;DHT22;18176;49.502;11.754;2022-12-16T01:11:04;-2.30;99.90
21184;DHT22;18176;49.502;11.754;2022-12-16T01:15:06;-2.30;99.90
21184;DHT22;18176;49.502;11.754;2022-12-16T01:19:09;-2.40;99.90
21184;DHT22;18176;49.502;11.754;2022-12-16T01:23:09;-2.40;99.90
21184;DHT22;18176;49.502;11.754;2022-12-16T01:27:12;-2.60;99.90
21184;DHT22;18176;49.502;11.754;2022-12-16T01:31:14;-2.50;99.90
21184;DHT22;18176;49.502;11.754;2022-12-16T01:35:17;-2.40;99.90
21184;DHT22;18176;49.502;11.754;2022-12-16T01:39:38;-2.40;99.90
21184;DHT22;18176;49.502;11.754;2022-12-16T01:43:42;-2.40;99.90
21184;DHT22;18176;49.502;11.754;2022-12-16T01:47:43;-2.60;99.90
21184;DHT22;18176;49.502;11.754;2022-12-16T01:51:45;-2.60;99.90
21184;DHT22;18176;49.502;11.754;2022-12-16T01:55:52;-2.60;99.90
21184;DHT22;18176;49.502;11.754;2022-12-16T01:59:58;-2.60;99.90
21184;DHT22;18176;49.502;11.754;2022-12-16T02:04:08;-2.70;99.90
21184;DHT22;18176;49.502;11.754;2022-12-16T02:08:12;-2.70;99.90
21184;DHT22;18176;49.502;11.754;2022-12-16T02:12:21;-2.70;99.90
21184;DHT22;18176;49.502;11.754;2022-12-16T02:16:34;-2.70;99.90
21184;DHT22;18176;49.502;11.754;2022-12-16T02:21:09;-2.60;99.90
21184;DHT22;18176;49.502;11.754;2022-12-16T02:25:46;-2.60;99.90
21184;DHT22;18176;49.502;11.754;2022-12-16T02:30:30;-2.70;99.90
21184;DHT22;18176;49.502;11.754;2022-12-16T02:34:46;-2.60;99.90
21184;DHT22;18176;49.502;11.754;2022-12-16T02:38:57;-2.70;99.90
21184;DHT22;18176;49.502;11.754;2022-12-16T02:43:03;-2.60;99.90
21184;DHT22;18176;49.502;11.754;2022-12-16T02:47:10;-2.70;99.90
21184;DHT22;18176;49.502;11.754;2022-12-16T02:51:10;-2.60;99.90
21184;DHT22;18176;49.502;11.754;2022-12-16T02:55:11;-2.70;99.90
21184;DHT22;18176;49.502;11.754;2022-12-16T02:59:18;-2.60;99.90
21184;DHT22;18176;49.502;11.754;2022-12-16T03:03:34;-2.80;99.90
21184;DHT22;18176;49.502;11.754;2022-12-16T03:07:39;-2.80;99.90
21184;DHT22;18176;49.502;11.754;2022-12-16T03:11:43;-2.90;99.90
21184;DHT22;18176;49.502;11.754;2022-12-16T03:15:45;-2.80;99.90
21184;DHT22;18176;49.502;11.754;2022-12-16T03:20:04;-2.80;99.90
21184;DHT22;18176;49.502;11.754;2022-12-16T03:24:11;-2.70;99.90
21184;DHT22;18176;49.502;11.754;2022-12-16T03:28:25;-2.80;99.90
21184;DHT22;18176;49.502;11.754;2022-12-16T03:32:35;-2.70;99.90
21184;DHT22;18176;49.502;11.754;2022-12-16T03:36:42;-2.70;99.90
21184;DHT22;18176;49.502;11.754;2022-12-16T03:40:47;-2.70;99.90
21184;DHT22;18176;49.502;11.754;2022-12-16T03:44:50;-2.60;99.90
21184;DHT22;18176;49.502;11.754;2022-12-16T03:48:51;-2.70;99.90
21184;DHT22;18176;49.502;11.754;2022-12-16T03:52:54;-2.60;99.90
21184;DHT22;18176;49.502;11.754;2022-12-16T03:56:55;-2.60;99.90
21184;DHT22;18176;49.502;11.754;2022-12-16T04:00:55;-2.60;99.90
21184;DHT22;18176;49.502;11.754;2022-12-16T04:04:56;-2.60;99.90
21184;DHT22;18176;49.502;11.754;2022-12-16T04:08:59;-2.60;99.90
21184;DHT22;18176;49.502;11.754;2022-12-16T04:12:59;-2.60;99.90
21184;DHT22;18176;49.502;11.754;2022-12-16T04:17:12;-2.60;99.90
21184;DHT22;18176;49.502;11.754;2022-12-16T04:21:25;-2.60;99.90
21184;DHT22;18176;49.502;11.754;2022-12-16T04:25:41;-2.60;99.90
21184;DHT22;18176;49.502;11.754;2022-12-16T04:29:42;-2.60;99.90
21184;DHT22;18176;49.502;11.754;2022-12-16T04:33:55;-2.60;99.90
21184;DHT22;18176;49.502;11.754;2022-12-16T04:38:07;-2.70;99.90
21184;DHT22;18176;49.502;11.754;2022-12-16T04:42:23;-2.70;99.90
21184;DHT22;18176;49.502;11.754;2022-12-16T04:46:35;-2.70;99.90
21184;DHT22;18176;49.502;11.754;2022-12-16T04:50:48;-2.70;99.90
21184;DHT22;18176;49.502;11.754;2022-12-16T04:55:01;-2.70;99.90
21184;DHT22;18176;49.502;11.754;2022-12-16T04:59:16;-2.80;99.90
21184;DHT22;18176;49.502;11.754;2022-12-16T05:03:30;-2.70;99.90
21184;DHT22;18176;49.502;11.754;2022-12-16T05:07:43;-2.70;99.90
21184;DHT22;18176;49.502;11.754;2022-12-16T05:11:55;-2.70;99.90
21184;DHT22;18176;49.502;11.754;2022-12-16T05:16:10;-2.70;99.90
21184;DHT22;18176;49.502;11.754;2022-12-16T05:20:23;-2.80;99.90
21184;DHT22;18176;49.502;11.754;2022-12-16T05:24:36;-2.70;99.90
21184;DHT22;18176;49.502;11.754;2022-12-16T05:28:49;-2.70;99.90
21184;DHT22;18176;49.502;11.754;2022-12-16T05:33:04;-2.70;99.90
21184;DHT22;18176;49.502;11.754;2022-12-16T05:37:17;-2.80;99.90
21184;DHT22;18176;49.502;11.754;2022-12-16T05:41:30;-2.70;99.90
21184;DHT22;18176;49.502;11.754;2022-12-16T05:45:42;-2.70;99.90
21184;DHT22;18176;49.502;11.754;2022-12-16T05:49:57;-2.60;99.90
21184;DHT22;18176;49.502;11.754;2022-12-16T05:54:11;-2.60;99.90
21184;DHT22;18176;49.502;11.754;2022-12-16T05:58:24;-2.60;99.90
21184;DHT22;18176;49.502;11.754;2022-12-16T06:02:37;-2.60;99.90
21184;DHT22;18176;49.502;11.754;2022-12-16T06:06:53;-2.60;99.90
21184;DHT22;18176;49.502;11.754;2022-12-16T06:11:05;-2.50;99.90
21184;DHT22;18176;49.502;11.754;2022-12-16T06:15:18;-2.50;99.90
21184;DHT22;18176;49.502;11.754;2022-12-16T06:19:31;-2.50;99.90
21184;DHT22;18176;49.502;11.754;2022-12-16T06:23:46;-2.60;99.90
21184;DHT22;18176;49.502;11.754;2022-12-16T06:27:59;-2.50;99.90
21184;DHT22;18176;49.502;11.754;2022-12-16T06:32:11;-2.40;99.90
21184;DHT22;18176;49.502;11.754;2022-12-16T06:36:24;-2.50;99.90
21184;DHT22;18176;49.502;11.754;2022-12-16T06:40:39;-2.60;99.90
21184;DHT22;18176;49.502;11.754;2022-12-16T06:44:52;-2.60;99.90
21184;DHT22;18176;49.502;11.754;2022-12-16T06:49:05;-2.60;99.90
21184;DHT22;18176;49.502;11.754;2022-12-16T06:53:17;-2.60;99.90
21184;DHT22;18176;49.502;11.754;2022-12-16T06:57:33;-2.60;99.90
21184;DHT22;18176;49.502;11.754;2022-12-16T07:01:45;-2.60;99.90
21184;DHT22;18176;49.502;11.754;2022-12-16T07:05:59;-2.60;99.90
21184;DHT22;18176;49.502;11.754;2022-12-16T07:10:12;-2.50;99.90
21184;DHT22;18176;49.502;11.754;2022-12-16T07:14:28;-2.40;99.90
21184;DHT22;18176;49.502;11.754;2022-12-16T07:18:40;-2.40;99.90
21184;DHT22;18176;49.502;11.754;2022-12-16T07:22:53;-2.40;99.90
21184;DHT22;18176;49.502;11.754;2022-12-16T07:27:15;-2.30;99.90
21184;DHT22;18176;49.502;11.754;2022-12-16T07:31:30;-2.30;99.90
21184;DHT22;18176;49.502;11.754;2022-12-16T07:35:43;-2.10;99.90
21184;DHT22;18176;49.502;11.754;2022-12-16T07:39:56;-2.00;99.90
21184;DHT22;18176;49.502;11.754;2022-12-16T07:44:08;-1.90;99.90
21184;DHT22;18176;49.502;11.754;2022-12-16T07:48:24;-1.80;99.90
21184;DHT22;18176;49.502;11.754;2022-12-16T07:52:36;-1.80;99.90
21184;DHT22;18176;49.502;11.754;2022-12-16T07:56:51;-1.80;99.90
21184;DHT22;18176;49.502;11.754;2022-12-16T08:01:04;-1.90;99.90
21184;DHT22;18176;49.502;11.754;2022-12-16T08:05:19;-1.90;99.90
21184;DHT22;18176;49.502;11.754;2022-12-16T08:09:32;-1.80;99.90
21184;DHT22;18176;49.502;11.754;2022-12-16T08:13:44;-1.70;99.90
21184;DHT22;18176;49.502;11.754;2022-12-16T08:17:57;-1.50;99.90
21184;DHT22;18176;49.502;11.754;2022-12-16T08:22:12;-1.40;99.90
21184;DHT22;18176;49.502;11.754;2022-12-16T08:26:25;-1.20;99.90
21184;DHT22;18176;49.502;11.754;2022-12-16T08:30:38;-0.90;99.90
21184;DHT22;18176;49.502;11.754;2022-12-16T08:34:50;-0.70;99.90
21184;DHT22;18176;49.502;11.754;2022-12-16T08:39:06;-0.60;99.90
21184;DHT22;18176;49.502;11.754;2022-12-16T08:43:19;-0.50;99.90
21184;DHT22;18176;49.502;11.754;2022-12-16T08:47:41;-0.50;99.90
21184;DHT22;18176;49.502;11.754;2022-12-16T08:51:54;-0.50;99.90
21184;DHT22;18176;49.502;11.754;2022-12-16T08:56:09;-0.30;99.90
21184;DHT22;18176;49.502;11.754;2022-12-16T09:00:21;-0.30;99.90
21184;DHT22;18176;49.502;11.754;2022-12-16T09:04:34;-0.20;99.90
21184;DHT22;18176;49.502;11.754;2022-12-16T09:08:51;-0.10;99.90
21184;DHT22;18176;49.502;11.754;2022-12-16T09:13:09;0.10;99.90
21184;DHT22;18176;49.502;11.754;2022-12-16T09:17:26;0.30;99.90
21184;DHT22;18176;49.502;11.754;2022-12-16T09:21:39;0.30;99.90
21184;DHT22;18176;49.502;11.754;2022-12-16T09:25:51;0.20;99.90
21184;DHT22;18176;49.502;11.754;2022-12-16T09:30:08;0.20;99.90
21184;DHT22;18176;49.502;11.754;2022-12-16T09:34:21;0.10;99.90
21184;DHT22;18176;49.502;11.754;2022-12-16T09:38:34;0.00;99.90
21184;DHT22;18176;49.502;11.754;2022-12-16T09:42:49;0.00;99.90
21184;DHT22;18176;49.502;11.754;2022-12-16T09:47:18;-0.10;99.90
21184;DHT22;18176;49.502;11.754;2022-12-16T09:51:40;-0.10;99.90
21184;DHT22;18176;49.502;11.754;2022-12-16T09:55:55;0.00;99.90
21184;DHT22;18176;49.502;11.754;2022-12-16T10:00:18;0.00;99.90
21184;DHT22;18176;49.502;11.754;2022-12-16T10:04:36;0.00;99.90
21184;DHT22;18176;49.502;11.754;2022-12-16T10:08:56;0.00;99.90
21184;DHT22;18176;49.502;11.754;2022-12-16T10:13:21;-0.10;99.90
21184;DHT22;18176;49.502;11.754;2022-12-16T10:17:44;-0.30;99.90
21184;DHT22;18176;49.502;11.754;2022-12-16T10:22:04;-0.20;99.90
21184;DHT22;18176;49.502;11.754;2022-12-16T10:26:29;-0.30;99.90
21184;DHT22;18176;49.502;11.754;2022-12-16T10:30:52;-0.30;99.90
21184;DHT22;18176;49.502;11.754;2022-12-16T10:35:18;-0.40;99.90
21184;DHT22;18176;49.502;11.754;2022-12-16T10:39:37;-0.60;99.90
21184;DHT22;18176;49.502;11.754;2022-12-16T10:43:54;-0.50;99.90
21184;DHT22;18176;49.502;11.754;2022-12-16T10:48:09;-0.40;99.90
21184;DHT22;18176;49.502;11.754;2022-12-16T10:52:28;-0.40;99.90
21184;DHT22;18176;49.502;11.754;2022-12-16T10:56:54;-0.30;99.90
21184;DHT22;18176;49.502;11.754;2022-12-16T11:01:21;-0.10;99.90
21184;DHT22;18176;49.502;11.754;2022-12-16T11:05:35;0.10;99.90
21184;DHT22;18176;49.502;11.754;2022-12-16T11:09:48;0.30;99.90
21184;DHT22;18176;49.502;11.754;2022-12-16T11:14:20;0.20;99.90
21184;DHT22;18176;49.502;11.754;2022-12-16T11:18:48;0.20;99.90
21184;DHT22;18176;49.502;11.754;2022-12-16T11:23:12;0.30;99.90
21184;DHT22;18176;49.502;11.754;2022-12-16T11:27:27;0.10;99.90
21184;DHT22;18176;49.502;11.754;2022-12-16T11:31:43;0.30;99.90
21184;DHT22;18176;49.502;11.754;2022-12-16T11:36:08;0.40;99.90
21184;DHT22;18176;49.502;11.754;2022-12-16T11:40:25;0.60;99.90
21184;DHT22;18176;49.502;11.754;2022-12-16T11:44:42;0.80;99.90
21184;DHT22;18176;49.502;11.754;2022-12-16T11:49:08;1.00;99.90
21184;DHT22;18176;49.502;11.754;2022-12-16T11:53:32;1.30;99.90
21184;DHT22;18176;49.502;11.754;2022-12-16T11:58:06;1.30;99.90
21184;DHT22;18176;49.502;11.754;2022-12-16T12:02:31;1.60;99.90
21184;DHT22;18176;49.502;11.754;2022-12-16T12:07:00;1.90;99.90
21184;DHT22;18176;49.502;11.754;2022-12-16T12:11:25;2.00;99.90
21184;DHT22;18176;49.502;11.754;2022-12-16T12:15:48;2.10;99.90
21184;DHT22;18176;49.502;11.754;2022-12-16T12:20:24;1.90;99.90
21184;DHT22;18176;49.502;11.754;2022-12-16T12:24:55;1.50;99.90
21184;DHT22;18176;49.502;11.754;2022-12-16T12:29:21;1.50;99.90
21184;DHT22;18176;49.502;11.754;2022-12-16T12:33:51;1.40;99.90
21184;DHT22;18176;49.502;11.754;2022-12-16T12:38:15;1.40;99.90
21184;DHT22;18176;49.502;11.754;2022-12-16T12:42:43;1.50;99.90
21184;DHT22;18176;49.502;11.754;2022-12-16T12:46:59;1.60;99.90
21184;DHT22;18176;49.502;11.754;2022-12-16T12:51:20;1.90;99.90
21184;DHT22;18176;49.502;11.754;2022-12-16T12:55:42;2.00;99.90
21184;DHT22;18176;49.502;11.754;2022-12-16T13:00:08;2.10;99.90
21184;DHT22;18176;49.502;11.754;2022-12-16T13:04:34;2.00;99.90
21184;DHT22;18176;49.502;11.754;2022-12-16T13:08:55;1.90;99.90
21184;DHT22;18176;49.502;11.754;2022-12-16T13:13:31;1.60;99.90
21184;DHT22;18176;49.502;11.754;2022-12-16T13:22:46;1.30;99.90
21184;DHT22;18176;49.502;11.754;2022-12-16T13:27:00;1.30;99.90
21184;DHT22;18176;49.502;11.754;2022-12-16T13:31:13;1.10;99.90
21184;DHT22;18176;49.502;11.754;2022-12-16T13:35:29;1.00;99.90
21184;DHT22;18176;49.502;11.754;2022-12-16T13:39:43;0.90;99.90
21184;DHT22;18176;49.502;11.754;2022-12-16T13:44:10;0.80;99.90
21184;DHT22;18176;49.502;11.754;2022-12-16T13:48:38;0.70;99.90
21184;DHT22;18176;49.502;11.754;2022-12-16T13:52:56;0.50;99.90
21184;DHT22;18176;49.502;11.754;2022-12-16T13:57:16;0.40;99.90
21184;DHT22;18176;49.502;11.754;2022-12-16T14:01:37;0.20;99.90
21184;DHT22;18176;49.502;11.754;2022-12-16T14:06:01;0.10;99.90
21184;DHT22;18176;49.502;11.754;2022-12-16T14:10:27;0.10;99.90
21184;DHT22;18176;49.502;11.754;2022-12-16T14:14:44;0.10;99.90
21184;DHT22;18176;49.502;11.754;2022-12-16T14:19:23;0.10;99.90
21184;DHT22;18176;49.502;11.754;2022-12-16T14:23:46;0.20;99.90
21184;DHT22;18176;49.502;11.754;2022-12-16T14:28:18;0.20;99.90
21184;DHT22;18176;49.502;11.754;2022-12-16T14:32:34;0.00;99.90
21184;DHT22;18176;49.502;11.754;2022-12-16T14:36:47;-0.10;99.90
21184;DHT22;18176;49.502;11.754;2022-12-16T14:41:00;-0.20;99.90
21184;DHT22;18176;49.502;11.754;2022-12-16T14:45:27;-0.30;99.90
21184;DHT22;18176;49.502;11.754;2022-12-16T14:49:49;-0.40;99.90
21184;DHT22;18176;49.502;11.754;2022-12-16T14:54:21;-0.60;99.90
21184;DHT22;18176;49.502;11.754;2022-12-16T14:58:36;-0.70;99.90
21184;DHT22;18176;49.502;11.754;2022-12-16T15:02:54;-0.90;99.90
21184;DHT22;18176;49.502;11.754;2022-12-16T15:07:11;-1.00;99.90
21184;DHT22;18176;49.502;11.754;2022-12-16T15:11:27;-1.10;99.90
21184;DHT22;18176;49.502;11.754;2022-12-16T15:15:43;-1.20;99.90
21184;DHT22;18176;49.502;11.754;2022-12-16T15:20:01;-1.30;99.90
21184;DHT22;18176;49.502;11.754;2022-12-16T15:24:17;-1.40;99.90
21184;DHT22;18176;49.502;11.754;2022-12-16T15:28:41;-1.40;99.90
21184;DHT22;18176;49.502;11.754;2022-12-16T15:32:56;-1.40;99.90
21184;DHT22;18176;49.502;11.754;2022-12-16T15:37:23;-1.50;99.90
21184;DHT22;18176;49.502;11.754;2022-12-16T15:41:45;-1.50;99.90
21184;DHT22;18176;49.502;11.754;2022-12-16T15:45:58;-1.50;99.90
21184;DHT22;18176;49.502;11.754;2022-12-16T15:50:12;-1.60;99.90
21184;DHT22;18176;49.502;11.754;2022-12-16T15:54:29;-1.60;99.90
21184;DHT22;18176;49.502;11.754;2022-12-16T15:58:42;-1.70;99.90
21184;DHT22;18176;49.502;11.754;2022-12-16T16:02:54;-1.70;99.90
21184;DHT22;18176;49.502;11.754;2022-12-16T16:07:13;-1.60;99.90
21184;DHT22;18176;49.502;11.754;2022-12-16T16:11:30;-1.60;99.90
21184;DHT22;18176;49.502;11.754;2022-12-16T16:15:43;-1.60;99.90
21184;DHT22;18176;49.502;11.754;2022-12-16T16:19:56;-1.60;99.90
21184;DHT22;18176;49.502;11.754;2022-12-16T16:24:16;-1.60;99.90
21184;DHT22;18176;49.502;11.754;2022-12-16T16:28:31;-1.70;99.90
21184;DHT22;18176;49.502;11.754;2022-12-16T16:32:46;-1.80;99.90
21184;DHT22;18176;49.502;11.754;2022-12-16T16:36:58;-1.90;99.90
21184;DHT22;18176;49.502;11.754;2022-12-16T16:41:13;-1.90;99.90
21184;DHT22;18176;49.502;11.754;2022-12-16T16:45:29;-1.90;99.90
21184;DHT22;18176;49.502;11.754;2022-12-16T16:49:44;-2.00;99.90
21184;DHT22;18176;49.502;11.754;2022-12-16T16:54:00;-2.00;99.90
21184;DHT22;18176;49.502;11.754;2022-12-16T16:58:24;-1.90;99.90
21184;DHT22;18176;49.502;11.754;2022-12-16T17:02:42;-2.00;99.90
21184;DHT22;18176;49.502;11.754;2022-12-16T17:06:58;-2.10;99.90
21184;DHT22;18176;49.502;11.754;2022-12-16T17:11:17;-2.10;99.90
21184;DHT22;18176;49.502;11.754;2022-12-16T17:15:34;-2.10;99.90
21184;DHT22;18176;49.502;11.754;2022-12-16T17:19:52;-2.20;99.90
21184;DHT22;18176;49.502;11.754;2022-12-16T17:24:05;-2.30;99.90
21184;DHT22;18176;49.502;11.754;2022-12-16T17:28:18;-2.30;99.90
21184;DHT22;18176;49.502;11.754;2022-12-16T17:32:31;-2.40;99.90
21184;DHT22;18176;49.502;11.754;2022-12-16T17:36:46;-2.40;99.90
21184;DHT22;18176;49.502;11.754;2022-12-16T17:40:59;-2.40;99.90
21184;DHT22;18176;49.502;11.754;2022-12-16T17:45:12;-2.50;99.90
21184;DHT22;18176;49.502;11.754;2022-12-16T17:49:24;-2.50;99.90
21184;DHT22;18176;49.502;11.754;2022-12-16T17:53:40;-2.50;99.90
21184;DHT22;18176;49.502;11.754;2022-12-16T17:57:59;-2.50;99.90
21184;DHT22;18176;49.502;11.754;2022-12-16T18:02:12;-2.60;99.90
21184;DHT22;18176;49.502;11.754;2022-12-16T18:06:26;-2.60;99.90
21184;DHT22;18176;49.502;11.754;2022-12-16T18:10:42;-2.60;99.90
21184;DHT22;18176;49.502;11.754;2022-12-16T18:14:55;-2.60;99.90
21184;DHT22;18176;49.502;11.754;2022-12-16T18:19:10;-2.60;99.90
21184;DHT22;18176;49.502;11.754;2022-12-16T18:23:26;-2.50;99.90
21184;DHT22;18176;49.502;11.754;2022-12-16T18:27:47;-2.60;99.90
21184;DHT22;18176;49.502;11.754;2022-12-16T18:32:03;-2.60;99.90
21184;DHT22;18176;49.502;11.754;2022-12-16T18:36:17;-2.60;99.90
21184;DHT22;18176;49.502;11.754;2022-12-16T18:40:31;-2.60;99.90
21184;DHT22;18176;49.502;11.754;2022-12-16T18:44:48;-2.70;99.90
21184;DHT22;18176;49.502;11.754;2022-12-16T18:49:01;-2.80;99.90
21184;DHT22;18176;49.502;11.754;2022-12-16T18:53:14;-2.80;99.90
21184;DHT22;18176;49.502;11.754;2022-12-16T18:57:27;-2.80;99.90
21184;DHT22;18176;49.502;11.754;2022-12-16T19:01:43;-2.80;99.90
21184;DHT22;18176;49.502;11.754;2022-12-16T19:05:56;-2.80;99.90
21184;DHT22;18176;49.502;11.754;2022-12-16T19:10:08;-2.80;99.90
21184;DHT22;18176;49.502;11.754;2022-12-16T19:14:21;-2.80;99.90
21184;DHT22;18176;49.502;11.754;2022-12-16T19:18:36;-2.90;99.90
21184;DHT22;18176;49.502;11.754;2022-12-16T19:22:51;-2.90;99.90
21184;DHT22;18176;49.502;11.754;2022-12-16T19:27:05;-2.90;99.90
21184;DHT22;18176;49.502;11.754;2022-12-16T19:31:17;-3.00;99.90
21184;DHT22;18176;49.502;11.754;2022-12-16T19:35:33;-3.00;99.90
21184;DHT22;18176;49.502;11.754;2022-12-16T19:39:45;-3.00;99.90
21184;DHT22;18176;49.502;11.754;2022-12-16T19:44:00;-3.10;99.90
21184;DHT22;18176;49.502;11.754;2022-12-16T19:48:12;-3.10;99.90
21184;DHT22;18176;49.502;11.754;2022-12-16T19:52:28;-3.10;99.90
21184;DHT22;18176;49.502;11.754;2022-12-16T19:56:40;-3.20;99.90
21184;DHT22;18176;49.502;11.754;2022-12-16T20:00:56;-3.20;99.90
21184;DHT22;18176;49.502;11.754;2022-12-16T20:05:08;-3.10;99.90
21184;DHT22;18176;49.502;11.754;2022-12-16T20:09:24;-3.20;99.90
21184;DHT22;18176;49.502;11.754;2022-12-16T20:13:37;-3.10;99.90
21184;DHT22;18176;49.502;11.754;2022-12-16T20:17:52;-3.20;99.90
21184;DHT22;18176;49.502;11.754;2022-12-16T20:22:10;-3.20;99.90
21184;DHT22;18176;49.502;11.754;2022-12-16T20:26:26;-3.20;99.90
21184;DHT22;18176;49.502;11.754;2022-12-16T20:30:39;-3.20;99.90
21184;DHT22;18176;49.502;11.754;2022-12-16T20:34:54;-3.20;99.90
21184;DHT22;18176;49.502;11.754;2022-12-16T20:39:08;-3.20;99.90
21184;DHT22;18176;49.502;11.754;2022-12-16T20:43:23;-3.20;99.90
21184;DHT22;18176;49.502;11.754;2022-12-16T20:47:37;-3.20;99.90
21184;DHT22;18176;49.502;11.754;2022-12-16T20:52:02;-3.30;99.90
21184;DHT22;18176;49.502;11.754;2022-12-16T20:56:30;-3.20;99.90
21184;DHT22;18176;49.502;11.754;2022-12-16T21:00:50;-3.20;99.90
21184;DHT22;18176;49.502;11.754;2022-12-16T21:05:03;-3.30;99.90
21184;DHT22;18176;49.502;11.754;2022-12-16T21:09:17;-3.30;99.90
21184;DHT22;18176;49.502;11.754;2022-12-16T21:13:29;-3.40;99.90
21184;DHT22;18176;49.502;11.754;2022-12-16T21:18:13;-3.40;99.90
21184;DHT22;18176;49.502;11.754;2022-12-16T21:22:26;-3.30;99.90
21184;DHT22;18176;49.502;11.754;2022-12-16T21:26:39;-3.40;99.90
21184;DHT22;18176;49.502;11.754;2022-12-16T21:30:52;-3.40;99.90
21184;DHT22;18176;49.502;11.754;2022-12-16T21:35:09;-3.50;99.90
21184;DHT22;18176;49.502;11.754;2022-12-16T21:39:22;-3.40;99.90
21184;DHT22;18176;49.502;11.754;2022-12-16T21:43:35;-3.30;99.90
21184;DHT22;18176;49.502;11.754;2022-12-16T21:47:51;-3.40;99.90
21184;DHT22;18176;49.502;11.754;2022-12-16T21:52:06;-3.30;99.90
21184;DHT22;18176;49.502;11.754;2022-12-16T21:56:19;-3.40;99.90
21184;DHT22;18176;49.502;11.754;2022-12-16T22:00:32;-3.40;99.90
21184;DHT22;18176;49.502;11.754;2022-12-16T22:04:49;-3.40;99.90
21184;DHT22;18176;49.502;11.754;2022-12-16T22:09:04;-3.40;99.90
21184;DHT22;18176;49.502;11.754;2022-12-16T22:13:17;-3.40;99.90
21184;DHT22;18176;49.502;11.754;2022-12-16T22:17:30;-3.40;99.90
21184;DHT22;18176;49.502;11.754;2022-12-16T22:21:46;-3.40;99.90
21184;DHT22;18176;49.502;11.754;2022-12-16T22:26:02;-3.40;99.90
21184;DHT22;18176;49.502;11.754;2022-12-16T22:30:15;-3.30;99.90
21184;DHT22;18176;49.502;11.754;2022-12-16T22:34:27;-3.40;99.90
21184;DHT22;18176;49.502;11.754;2022-12-16T22:38:40;-3.40;99.90
21184;DHT22;18176;49.502;11.754;2022-12-16T22:42:55;-3.40;99.90
21184;DHT22;18176;49.502;11.754;2022-12-16T22:47:08;-3.40;99.90
21184;DHT22;18176;49.502;11.754;2022-12-16T22:51:21;-3.50;99.90
21184;DHT22;18176;49.502;11.754;2022-12-16T22:55:33;-3.50;99.90
21184;DHT22;18176;49.502;11.754;2022-12-16T22:59:48;-3.50;99.90
21184;DHT22;18176;49.502;11.754;2022-12-16T23:04:01;-3.60;99.90
21184;DHT22;18176;49.502;11.754;2022-12-16T23:08:14;-3.60;99.90
21184;DHT22;18176;49.502;11.754;2022-12-16T23:12:26;-3.60;99.90
21184;DHT22;18176;49.502;11.754;2022-12-16T23:16:42;-3.70;99.90
21184;DHT22;18176;49.502;11.754;2022-12-16T23:20:54;-3.60;99.90
21184;DHT22;18176;49.502;11.754;2022-12-16T23:25:09;-3.60;99.90
21184;DHT22;18176;49.502;11.754;2022-12-16T23:29:22;-3.50;99.90
21184;DHT22;18176;49.502;11.754;2022-12-16T23:33:37;-3.50;99.90
21184;DHT22;18176;49.502;11.754;2022-12-16T23:37:59;-3.50;99.90
21184;DHT22;18176;49.502;11.754;2022-12-16T23:42:12;-3.60;99.90
21184;DHT22;18176;49.502;11.754;2022-12-16T23:46:24;-3.60;99.90
21184;DHT22;18176;49.502;11.754;2022-12-16T23:50:40;-3.70;99.90
21184;DHT22;18176;49.502;11.754;2022-12-16T23:54:53;-3.70;99.90
21184;DHT22;18176;49.502;11.754;2022-12-16T23:59:06;-3.80;99.90
